sensor_id;sensor_type;location;lat;lon;timestamp;pressure;altitude;pressure_sealevel;temperature;humidity
62124;BME280;48110;47.532;19.078;2024-01-30T00:02:20;102752.00;;;-2.17;100.00
62124;BME280;48110;47.532;19.078;2024-01-30T00:05:23;102752.03;;;-2.18;100.00
62124;BME280;48110;47.532;19.078;2024-01-30T00:08:26;102752.06;;;-2.20;100.00
62124;BME280;48110;47.532;19.078;2024-01-30T00:11:29;102749.56;;;-2.25;100.00
62124;BME280;48110;47.532;19.078;2024-01-30T00:14:31;102751.31;;;-2.27;100.00
62124;BME280;48110;47.532;19.078;2024-01-30T00:17:36;102754.84;;;-2.29;100.00
62124;BME280;48110;47.532;19.078;2024-01-30T00:20:39;102740.69;;;-2.14;100.00
62124;BME280;48110;47.532;19.078;2024-01-30T00:23:42;102740.50;;;-2.04;100.00
62124;BME280;48110;47.532;19.078;2024-01-30T00:26:45;102743.25;;;-2.13;100.00
62124;BME280;48110;47.532;19.078;2024-01-30T00:29:48;102741.66;;;-2.18;100.00
62124;BME280;48110;47.532;19.078;2024-01-30T00:32:50;102754.84;;;-2.29;100.00
62124;BME280;48110;47.532;19.078;2024-01-30T00:35:53;102755.81;;;-2.36;100.00
62124;BME280;48110;47.532;19.078;2024-01-30T00:38:56;102766.28;;;-2.39;100.00
62124;BME280;48110;47.532;19.078;2024-01-30T00:41:59;102774.91;;;-2.37;100.00
62124;BME280;48110;47.532;19.078;2024-01-30T00:45:02;102757.59;;;-2.38;100.00
62124;BME280;48110;47.532;19.078;2024-01-30T00:48:05;102768.87;;;-2.38;100.00
62124;BME280;48110;47.532;19.078;2024-01-30T00:51:08;102766.28;;;-2.39;100.00
62124;BME280;48110;47.532;19.078;2024-01-30T00:54:12;102756.84;;;-2.46;100.00
62124;BME280;48110;47.532;19.078;2024-01-30T00:57:14;102760.31;;;-2.46;100.00
62124;BME280;48110;47.532;19.078;2024-01-30T01:00:17;102755.25;;;-2.52;100.00
62124;BME280;48110;47.532;19.078;2024-01-30T01:03:20;102758.75;;;-2.54;100.00
62124;BME280;48110;47.532;19.078;2024-01-30T01:06:24;102750.97;;;-2.56;100.00
62124;BME280;48110;47.532;19.078;2024-01-30T01:09:26;102753.53;;;-2.54;100.00
62124;BME280;48110;47.532;19.078;2024-01-30T01:12:29;102754.47;;;-2.57;100.00
62124;BME280;48110;47.532;19.078;2024-01-30T01:15:32;102751.87;;;-2.58;100.00
62124;BME280;48110;47.532;19.078;2024-01-30T01:18:35;102751.00;;;-2.57;100.00
62124;BME280;48110;47.532;19.078;2024-01-30T01:21:38;102752.69;;;-2.56;100.00
62124;BME280;48110;47.532;19.078;2024-01-30T01:24:41;102744.91;;;-2.56;100.00
62124;BME280;48110;47.532;19.078;2024-01-30T01:27:44;102737.25;;;-2.62;100.00
62124;BME280;48110;47.532;19.078;2024-01-30T01:30:54;102751.97;;;-2.63;100.00
62124;BME280;48110;47.532;19.078;2024-01-30T01:34:01;102745.97;;;-2.67;100.00
62124;BME280;48110;47.532;19.078;2024-01-30T01:37:04;102735.63;;;-2.70;100.00
62124;BME280;48110;47.532;19.078;2024-01-30T01:40:07;102740.00;;;-2.72;100.00
62124;BME280;48110;47.532;19.078;2024-01-30T01:43:11;102744.09;;;-2.60;100.00
62124;BME280;48110;47.532;19.078;2024-01-30T01:46:13;102738.19;;;-2.67;100.00
62124;BME280;48110;47.532;19.078;2024-01-30T01:49:17;102737.41;;;-2.73;100.00
62124;BME280;48110;47.532;19.078;2024-01-30T01:52:21;102740.88;;;-2.73;100.00
62124;BME280;48110;47.532;19.078;2024-01-30T01:55:24;102741.75;;;-2.74;100.00
62124;BME280;48110;47.532;19.078;2024-01-30T01:58:30;102745.31;;;-2.79;100.00
62124;BME280;48110;47.532;19.078;2024-01-30T02:01:34;102726.31;;;-2.81;100.00
62124;BME280;48110;47.532;19.078;2024-01-30T02:04:37;102745.37;;;-2.82;100.00
62124;BME280;48110;47.532;19.078;2024-01-30T02:07:40;102732.41;;;-2.84;100.00
62124;BME280;48110;47.532;19.078;2024-01-30T02:10:44;102734.28;;;-2.92;100.00
62124;BME280;48110;47.532;19.078;2024-01-30T02:13:48;102728.19;;;-2.91;100.00
62124;BME280;48110;47.532;19.078;2024-01-30T02:16:52;102735.16;;;-2.93;100.00
62124;BME280;48110;47.532;19.078;2024-01-30T02:19:54;102731.75;;;-2.96;100.00
62124;BME280;48110;47.532;19.078;2024-01-30T02:22:58;102728.37;;;-3.01;100.00
62124;BME280;48110;47.532;19.078;2024-01-30T02:26:03;102726.62;;;-3.02;100.00
62124;BME280;48110;47.532;19.078;2024-01-30T02:29:06;102735.28;;;-3.02;100.00
62124;BME280;48110;47.532;19.078;2024-01-30T02:32:09;102730.09;;;-3.02;100.00
62124;BME280;48110;47.532;19.078;2024-01-30T02:35:12;102726.78;;;-3.10;100.00
62124;BME280;48110;47.532;19.078;2024-01-30T02:38:18;102736.31;;;-3.14;100.00
62124;BME280;48110;47.532;19.078;2024-01-30T02:41:21;102730.25;;;-3.13;100.00
62124;BME280;48110;47.532;19.078;2024-01-30T02:44:24;102728.59;;;-3.18;100.00
62124;BME280;48110;47.532;19.078;2024-01-30T02:47:27;102735.53;;;-3.19;100.00
62124;BME280;48110;47.532;19.078;2024-01-30T02:50:29;102739.91;;;-3.21;100.00
62124;BME280;48110;47.532;19.078;2024-01-30T02:53:32;102730.41;;;-3.23;100.00
62124;BME280;48110;47.532;19.078;2024-01-30T02:56:35;102726.94;;;-3.22;100.00
62124;BME280;48110;47.532;19.078;2024-01-30T02:59:38;102722.53;;;-3.17;100.00
62124;BME280;48110;47.532;19.078;2024-01-30T03:02:41;102725.19;;;-3.20;100.00
62124;BME280;48110;47.532;19.078;2024-01-30T03:05:44;102728.66;;;-3.21;100.00
62124;BME280;48110;47.532;19.078;2024-01-30T03:08:46;102719.09;;;-3.18;100.00
62124;BME280;48110;47.532;19.078;2024-01-30T03:11:49;102720.88;;;-3.23;100.00
62124;BME280;48110;47.532;19.078;2024-01-30T03:14:52;102723.56;;;-3.27;100.00
62124;BME280;48110;47.532;19.078;2024-01-30T03:17:55;102733.16;;;-3.32;100.00
62124;BME280;48110;47.532;19.078;2024-01-30T03:20:58;102730.59;;;-3.35;100.00
62124;BME280;48110;47.532;19.078;2024-01-30T03:24:00;102734.94;;;-3.37;100.00
62124;BME280;48110;47.532;19.078;2024-01-30T03:27:03;102733.16;;;-3.34;100.00
62124;BME280;48110;47.532;19.078;2024-01-30T03:30:07;102735.00;;;-3.42;100.00
62124;BME280;48110;47.532;19.078;2024-01-30T03:33:10;102734.22;;;-3.48;100.00
62124;BME280;48110;47.532;19.078;2024-01-30T03:36:14;102734.22;;;-3.45;100.00
62124;BME280;48110;47.532;19.078;2024-01-30T03:39:18;102738.53;;;-3.44;100.00
62124;BME280;48110;47.532;19.078;2024-01-30T03:42:21;102715.97;;;-3.41;100.00
62124;BME280;48110;47.532;19.078;2024-01-30T03:45:24;102720.16;;;-3.32;100.00
62124;BME280;48110;47.532;19.078;2024-01-30T03:48:28;102710.66;;;-3.33;100.00
62124;BME280;48110;47.532;19.078;2024-01-30T03:51:31;102711.59;;;-3.37;100.00
62124;BME280;48110;47.532;19.078;2024-01-30T03:54:34;102708.19;;;-3.39;100.00
62124;BME280;48110;47.532;19.078;2024-01-30T03:57:37;102709.84;;;-3.35;100.00
62124;BME280;48110;47.532;19.078;2024-01-30T04:00:40;102711.59;;;-3.37;100.00
62124;BME280;48110;47.532;19.078;2024-01-30T04:03:44;102709.84;;;-3.37;100.00
62124;BME280;48110;47.532;19.078;2024-01-30T04:06:47;102711.63;;;-3.39;100.00
62124;BME280;48110;47.532;19.078;2024-01-30T04:09:50;102708.25;;;-3.44;100.00
62124;BME280;48110;47.532;19.078;2024-01-30T04:12:53;102705.66;;;-3.45;100.00
62124;BME280;48110;47.532;19.078;2024-01-30T04:15:56;102708.41;;;-3.55;100.00
62124;BME280;48110;47.532;19.078;2024-01-30T04:18:59;102703.22;;;-3.55;100.00
62124;BME280;48110;47.532;19.078;2024-01-30T04:22:03;102704.03;;;-3.53;100.00
62124;BME280;48110;47.532;19.078;2024-01-30T04:25:06;102701.47;;;-3.56;100.00
62124;BME280;48110;47.532;19.078;2024-01-30T04:28:09;102696.22;;;-3.51;100.00
62124;BME280;48110;47.532;19.078;2024-01-30T04:31:14;102705.75;;;-3.52;100.00
62124;BME280;48110;47.532;19.078;2024-01-30T04:34:17;102707.53;;;-3.55;100.00
62124;BME280;48110;47.532;19.078;2024-01-30T04:37:20;102710.00;;;-3.46;100.00
62124;BME280;48110;47.532;19.078;2024-01-30T04:40:23;102704.87;;;-3.52;100.00
62124;BME280;48110;47.532;19.078;2024-01-30T04:43:26;102705.47;;;-3.33;100.00
62124;BME280;48110;47.532;19.078;2024-01-30T04:46:30;102703.63;;;-3.25;100.00
62124;BME280;48110;47.532;19.078;2024-01-30T04:49:32;102703.78;;;-3.36;100.00
62124;BME280;48110;47.532;19.078;2024-01-30T04:52:36;102705.69;;;-3.48;100.00
62124;BME280;48110;47.532;19.078;2024-01-30T04:55:38;102707.38;;;-3.44;100.00
62124;BME280;48110;47.532;19.078;2024-01-30T04:58:41;102710.00;;;-3.47;100.00
62124;BME280;48110;47.532;19.078;2024-01-30T05:01:44;102716.97;;;-3.49;100.00
62124;BME280;48110;47.532;19.078;2024-01-30T05:04:47;102719.50;;;-3.46;100.00
62124;BME280;48110;47.532;19.078;2024-01-30T05:07:50;102726.50;;;-3.52;100.00
62124;BME280;48110;47.532;19.078;2024-01-30T05:10:53;102725.63;;;-3.49;100.00
62124;BME280;48110;47.532;19.078;2024-01-30T05:13:55;102732.41;;;-3.40;100.00
62124;BME280;48110;47.532;19.078;2024-01-30T05:16:58;102728.09;;;-3.40;100.00
62124;BME280;48110;47.532;19.078;2024-01-30T05:20:01;102729.03;;;-3.45;100.00
62124;BME280;48110;47.532;19.078;2024-01-30T05:23:05;102749.84;;;-3.50;100.00
62124;BME280;48110;47.532;19.078;2024-01-30T05:26:08;102750.62;;;-3.45;100.00
62124;BME280;48110;47.532;19.078;2024-01-30T05:29:11;102754.06;;;-3.43;100.00
62124;BME280;48110;47.532;19.078;2024-01-30T05:32:13;102750.94;;;-3.07;100.00
62124;BME280;48110;47.532;19.078;2024-01-30T05:35:16;102750.72;;;-2.91;100.00
62124;BME280;48110;47.532;19.078;2024-01-30T05:38:19;102756.00;;;-2.99;100.00
62124;BME280;48110;47.532;19.078;2024-01-30T05:41:23;102755.37;;;-3.15;100.00
62124;BME280;48110;47.532;19.078;2024-01-30T05:44:25;102754.75;;;-3.30;100.00
62124;BME280;48110;47.532;19.078;2024-01-30T05:47:28;102757.50;;;-3.41;100.00
62124;BME280;48110;47.532;19.078;2024-01-30T05:50:31;102762.78;;;-3.48;100.00
62124;BME280;48110;47.532;19.078;2024-01-30T05:53:34;102758.63;;;-3.59;100.00
62124;BME280;48110;47.532;19.078;2024-01-30T05:56:37;102760.31;;;-3.58;100.00
62124;BME280;48110;47.532;19.078;2024-01-30T05:59:40;102758.75;;;-3.69;100.00
62124;BME280;48110;47.532;19.078;2024-01-30T06:02:43;102759.66;;;-3.73;100.00
62124;BME280;48110;47.532;19.078;2024-01-30T06:05:46;102752.78;;;-3.77;100.00
62124;BME280;48110;47.532;19.078;2024-01-30T06:08:49;102765.78;;;-3.80;100.00
62124;BME280;48110;47.532;19.078;2024-01-30T06:11:52;102760.59;;;-3.80;100.00
62124;BME280;48110;47.532;19.078;2024-01-30T06:14:55;102764.72;;;-3.64;100.00
62124;BME280;48110;47.532;19.078;2024-01-30T06:18:00;102767.22;;;-3.58;100.00
62124;BME280;48110;47.532;19.078;2024-01-30T06:21:04;102763.75;;;-3.54;100.00
62124;BME280;48110;47.532;19.078;2024-01-30T06:24:07;102767.22;;;-3.58;100.00
62124;BME280;48110;47.532;19.078;2024-01-30T06:27:10;102765.50;;;-3.58;100.00
62124;BME280;48110;47.532;19.078;2024-01-30T06:30:13;102757.75;;;-3.59;100.00
62124;BME280;48110;47.532;19.078;2024-01-30T06:33:16;102758.56;;;-3.56;100.00
62124;BME280;48110;47.532;19.078;2024-01-30T06:36:18;102768.87;;;-3.51;100.00
62124;BME280;48110;47.532;19.078;2024-01-30T06:39:21;102766.16;;;-3.42;100.00
62124;BME280;48110;47.532;19.078;2024-01-30T06:42:24;102772.06;;;-3.32;100.00
62124;BME280;48110;47.532;19.078;2024-01-30T06:45:27;102762.69;;;-3.39;100.00
62124;BME280;48110;47.532;19.078;2024-01-30T06:48:30;102774.81;;;-3.41;100.00
62124;BME280;48110;47.532;19.078;2024-01-30T06:51:32;102778.84;;;-3.22;100.00
62124;BME280;48110;47.532;19.078;2024-01-30T06:54:36;102772.00;;;-3.28;100.00
62124;BME280;48110;47.532;19.078;2024-01-30T06:57:39;102772.00;;;-3.28;100.00
62124;BME280;48110;47.532;19.078;2024-01-30T07:00:42;102772.81;;;-3.23;100.00
62124;BME280;48110;47.532;19.078;2024-01-30T07:03:46;102772.59;;;-3.09;100.00
62124;BME280;48110;47.532;19.078;2024-01-30T07:06:49;102773.44;;;-3.07;100.00
62124;BME280;48110;47.532;19.078;2024-01-30T07:09:52;102770.00;;;-3.09;100.00
62124;BME280;48110;47.532;19.078;2024-01-30T07:13:00;102771.59;;;-2.99;100.00
62124;BME280;48110;47.532;19.078;2024-01-30T07:16:03;102774.66;;;-2.74;100.00
62124;BME280;48110;47.532;19.078;2024-01-30T07:19:07;102773.72;;;-2.70;100.00
62124;BME280;48110;47.532;19.078;2024-01-30T07:22:12;102767.66;;;-2.69;100.00
62124;BME280;48110;47.532;19.078;2024-01-30T07:25:15;102778.97;;;-2.72;100.00
62124;BME280;48110;47.532;19.078;2024-01-30T07:28:19;102775.34;;;-2.63;100.00
62124;BME280;48110;47.532;19.078;2024-01-30T07:31:22;102777.78;;;-2.54;100.00
62124;BME280;48110;47.532;19.078;2024-01-30T07:34:26;102778.59;;;-2.50;100.00
62124;BME280;48110;47.532;19.078;2024-01-30T07:37:30;102771.56;;;-2.44;100.00
62124;BME280;48110;47.532;19.078;2024-01-30T07:40:33;102774.00;;;-2.36;100.00
62124;BME280;48110;47.532;19.078;2024-01-30T07:43:38;102773.81;;;-2.26;100.00
62124;BME280;48110;47.532;19.078;2024-01-30T07:46:41;102766.00;;;-2.24;100.00
62124;BME280;48110;47.532;19.078;2024-01-30T07:49:44;102768.34;;;-2.10;100.00
62124;BME280;48110;47.532;19.078;2024-01-30T07:52:47;102769.53;;;-1.82;100.00
62124;BME280;48110;47.532;19.078;2024-01-30T07:55:53;102758.97;;;-1.74;100.00
62124;BME280;48110;47.532;19.078;2024-01-30T07:58:56;102762.28;;;-1.68;100.00
62124;BME280;48110;47.532;19.078;2024-01-30T08:01:59;102759.53;;;-1.60;100.00
62124;BME280;48110;47.532;19.078;2024-01-30T08:05:02;102757.75;;;-1.58;100.00
62124;BME280;48110;47.532;19.078;2024-01-30T08:08:05;102769.81;;;-1.54;100.00
62124;BME280;48110;47.532;19.078;2024-01-30T08:11:08;102770.66;;;-1.52;100.00
62124;BME280;48110;47.532;19.078;2024-01-30T08:14:11;102767.88;;;-1.45;100.00
62124;BME280;48110;47.532;19.078;2024-01-30T08:17:17;102775.66;;;-1.43;100.00
62124;BME280;48110;47.532;19.078;2024-01-30T08:20:19;102771.09;;;-1.34;100.00
62124;BME280;48110;47.532;19.078;2024-01-30T08:23:22;102778.50;;;-1.15;100.00
62124;BME280;48110;47.532;19.078;2024-01-30T08:26:25;102772.41;;;-1.14;100.00
62124;BME280;48110;47.532;19.078;2024-01-30T08:29:29;102780.75;;;-1.00;100.00
62124;BME280;48110;47.532;19.078;2024-01-30T08:32:32;102779.50;;;-0.82;100.00
62124;BME280;48110;47.532;19.078;2024-01-30T08:35:35;102776.69;;;-0.75;100.00
62124;BME280;48110;47.532;19.078;2024-01-30T08:38:38;102783.41;;;-0.65;100.00
62124;BME280;48110;47.532;19.078;2024-01-30T08:41:41;102781.56;;;-0.61;100.00
62124;BME280;48110;47.532;19.078;2024-01-30T08:44:43;102777.69;;;-0.45;100.00
62124;BME280;48110;47.532;19.078;2024-01-30T08:47:46;102781.88;;;-0.39;100.00
62124;BME280;48110;47.532;19.078;2024-01-30T08:50:49;102786.28;;;-0.09;100.00
62124;BME280;48110;47.532;19.078;2024-01-30T08:53:52;102785.06;;;0.04;100.00
62124;BME280;48110;47.532;19.078;2024-01-30T08:56:56;102787.00;;;0.28;100.00
62124;BME280;48110;47.532;19.078;2024-01-30T09:00:01;102780.34;;;0.77;100.00
62124;BME280;48110;47.532;19.078;2024-01-30T09:03:07;102772.91;;;1.19;100.00
62124;BME280;48110;47.532;19.078;2024-01-30T09:06:10;102781.88;;;1.64;100.00
62124;BME280;48110;47.532;19.078;2024-01-30T09:09:14;102768.87;;;2.11;100.00
62124;BME280;48110;47.532;19.078;2024-01-30T09:12:17;102774.06;;;2.36;100.00
62124;BME280;48110;47.532;19.078;2024-01-30T09:15:20;102773.84;;;2.65;100.00
62124;BME280;48110;47.532;19.078;2024-01-30T09:18:26;102767.59;;;1.98;100.00
62124;BME280;48110;47.532;19.078;2024-01-30T09:21:29;102769.69;;;1.88;100.00
62124;BME280;48110;47.532;19.078;2024-01-30T09:24:32;102762.16;;;2.50;100.00
62124;BME280;48110;47.532;19.078;2024-01-30T09:27:34;102766.31;;;2.56;100.00
62124;BME280;48110;47.532;19.078;2024-01-30T09:30:37;102769.72;;;2.58;100.00
62124;BME280;48110;47.532;19.078;2024-01-30T09:33:40;102773.09;;;2.38;100.00
62124;BME280;48110;47.532;19.078;2024-01-30T09:36:44;102764.75;;;2.04;100.00
62124;BME280;48110;47.532;19.078;2024-01-30T09:39:47;102770.94;;;2.26;100.00
62124;BME280;48110;47.532;19.078;2024-01-30T09:42:51;102758.41;;;2.11;100.00
62124;BME280;48110;47.532;19.078;2024-01-30T09:45:54;102763.28;;;1.97;100.00
62124;BME280;48110;47.532;19.078;2024-01-30T09:49:00;102764.91;;;1.99;100.00
62124;BME280;48110;47.532;19.078;2024-01-30T09:52:05;102763.31;;;1.95;100.00
62124;BME280;48110;47.532;19.078;2024-01-30T09:55:09;102754.91;;;2.34;100.00
62124;BME280;48110;47.532;19.078;2024-01-30T09:58:12;102761.56;;;2.19;100.00
62124;BME280;48110;47.532;19.078;2024-01-30T10:01:17;102765.69;;;2.26;100.00
62124;BME280;48110;47.532;19.078;2024-01-30T10:04:22;102762.94;;;2.76;100.00
62124;BME280;48110;47.532;19.078;2024-01-30T10:07:25;102764.47;;;3.45;100.00
62124;BME280;48110;47.532;19.078;2024-01-30T10:10:28;102765.94;;;3.52;100.00
62124;BME280;48110;47.532;19.078;2024-01-30T10:13:31;102761.66;;;3.49;100.00
62124;BME280;48110;47.532;19.078;2024-01-30T10:16:35;102759.97;;;3.69;100.00
62124;BME280;48110;47.532;19.078;2024-01-30T10:19:39;102764.16;;;3.93;100.00
62124;BME280;48110;47.532;19.078;2024-01-30T10:22:42;102762.37;;;3.73;100.00
62124;BME280;48110;47.532;19.078;2024-01-30T10:25:47;102756.75;;;3.62;100.00
62124;BME280;48110;47.532;19.078;2024-01-30T10:28:50;102744.72;;;3.97;100.00
62124;BME280;48110;47.532;19.078;2024-01-30T10:32:03;102745.28;;;4.24;100.00
62124;BME280;48110;47.532;19.078;2024-01-30T10:35:09;102748.69;;;4.26;100.00
62124;BME280;48110;47.532;19.078;2024-01-30T10:38:14;102747.25;;;4.37;100.00
62124;BME280;48110;47.532;19.078;2024-01-30T10:41:26;102744.72;;;4.73;100.00
62124;BME280;48110;47.532;19.078;2024-01-30T10:44:29;102731.63;;;4.72;100.00
62124;BME280;48110;47.532;19.078;2024-01-30T10:47:39;102729.31;;;5.02;100.00
62124;BME280;48110;47.532;19.078;2024-01-30T10:50:42;102729.16;;;4.50;100.00
62124;BME280;48110;47.532;19.078;2024-01-30T10:53:56;102713.31;;;4.14;100.00
62124;BME280;48110;47.532;19.078;2024-01-30T10:57:00;102714.87;;;3.79;100.00
62124;BME280;48110;47.532;19.078;2024-01-30T11:00:11;102709.62;;;4.18;100.00
62124;BME280;48110;47.532;19.078;2024-01-30T11:03:15;102697.34;;;4.19;100.00
62124;BME280;48110;47.532;19.078;2024-01-30T11:06:23;102697.97;;;4.24;100.00
62124;BME280;48110;47.532;19.078;2024-01-30T11:09:29;102693.94;;;4.35;100.00
62124;BME280;48110;47.532;19.078;2024-01-30T11:12:37;102693.63;;;4.23;100.00
62124;BME280;48110;47.532;19.078;2024-01-30T11:15:48;102694.13;;;4.12;100.00
62124;BME280;48110;47.532;19.078;2024-01-30T11:18:52;102690.31;;;4.38;100.00
62124;BME280;48110;47.532;19.078;2024-01-30T11:21:55;102675.53;;;4.54;100.00
62124;BME280;48110;47.532;19.078;2024-01-30T11:25:01;102678.59;;;4.45;100.00
62124;BME280;48110;47.532;19.078;2024-01-30T11:28:13;102671.53;;;4.46;100.00
62124;BME280;48110;47.532;19.078;2024-01-30T11:31:18;102671.06;;;4.37;100.00
62124;BME280;48110;47.532;19.078;2024-01-30T11:34:21;102672.81;;;4.56;100.00
62124;BME280;48110;47.532;19.078;2024-01-30T11:37:26;102674.37;;;4.60;100.00
62124;BME280;48110;47.532;19.078;2024-01-30T11:40:30;102672.97;;;4.89;100.00
62124;BME280;48110;47.532;19.078;2024-01-30T11:43:34;102671.41;;;6.03;100.00
62124;BME280;48110;47.532;19.078;2024-01-30T11:46:38;102669.12;;;8.49;100.00
62124;BME280;48110;47.532;19.078;2024-01-30T11:49:41;102663.03;;;9.40;91.96
62124;BME280;48110;47.532;19.078;2024-01-30T11:52:45;102669.81;;;9.69;82.45
62124;BME280;48110;47.532;19.078;2024-01-30T11:55:51;102667.97;;;7.98;97.81
62124;BME280;48110;47.532;19.078;2024-01-30T11:58:54;102649.66;;;6.92;100.00
62124;BME280;48110;47.532;19.078;2024-01-30T12:01:57;102649.00;;;6.28;100.00
62124;BME280;48110;47.532;19.078;2024-01-30T12:05:07;102644.84;;;5.58;100.00
62124;BME280;48110;47.532;19.078;2024-01-30T12:08:15;102642.50;;;5.69;100.00
62124;BME280;48110;47.532;19.078;2024-01-30T12:11:19;102636.31;;;5.53;100.00
62124;BME280;48110;47.532;19.078;2024-01-30T12:14:22;102618.25;;;5.47;100.00
62124;BME280;48110;47.532;19.078;2024-01-30T12:17:32;102615.59;;;7.04;100.00
62124;BME280;48110;47.532;19.078;2024-01-30T12:20:35;102621.75;;;8.17;100.00
62124;BME280;48110;47.532;19.078;2024-01-30T12:23:38;102613.41;;;7.40;98.04
62124;BME280;48110;47.532;19.078;2024-01-30T12:26:42;102619.13;;;8.17;98.56
62124;BME280;48110;47.532;19.078;2024-01-30T12:29:45;102621.56;;;8.35;88.34
62124;BME280;48110;47.532;19.078;2024-01-30T12:32:49;102614.13;;;8.81;90.36
62124;BME280;48110;47.532;19.078;2024-01-30T12:35:54;102610.63;;;8.93;85.90
62124;BME280;48110;47.532;19.078;2024-01-30T12:39:05;102616.72;;;8.41;85.21
62124;BME280;48110;47.532;19.078;2024-01-30T12:42:08;102613.09;;;7.16;96.93
62124;BME280;48110;47.532;19.078;2024-01-30T12:45:10;102613.31;;;6.97;96.39
62124;BME280;48110;47.532;19.078;2024-01-30T12:48:13;102614.91;;;7.72;92.18
62124;BME280;48110;47.532;19.078;2024-01-30T12:51:16;102606.22;;;7.56;91.29
62124;BME280;48110;47.532;19.078;2024-01-30T12:54:19;102602.41;;;6.74;95.30
62124;BME280;48110;47.532;19.078;2024-01-30T12:57:22;102599.72;;;7.33;91.16
62124;BME280;48110;47.532;19.078;2024-01-30T13:00:25;102597.56;;;7.54;87.60
62124;BME280;48110;47.532;19.078;2024-01-30T13:03:28;102595.50;;;7.45;89.09
62124;BME280;48110;47.532;19.078;2024-01-30T13:06:31;102588.78;;;7.25;89.14
62124;BME280;48110;47.532;19.078;2024-01-30T13:09:33;102596.00;;;6.78;92.92
62124;BME280;48110;47.532;19.078;2024-01-30T13:12:37;102585.72;;;7.17;89.92
62124;BME280;48110;47.532;19.078;2024-01-30T13:15:41;102581.44;;;7.59;85.49
62124;BME280;48110;47.532;19.078;2024-01-30T13:18:44;102582.63;;;7.81;83.62
62124;BME280;48110;47.532;19.078;2024-01-30T13:21:47;102576.31;;;7.56;87.35
62124;BME280;48110;47.532;19.078;2024-01-30T13:24:51;102574.56;;;6.98;87.75
62124;BME280;48110;47.532;19.078;2024-01-30T13:27:53;102573.88;;;7.24;88.02
62124;BME280;48110;47.532;19.078;2024-01-30T13:30:56;102573.38;;;7.04;86.47
62124;BME280;48110;47.532;19.078;2024-01-30T13:34:00;102580.94;;;7.38;85.92
62124;BME280;48110;47.532;19.078;2024-01-30T13:37:05;102571.25;;;7.38;84.96
62124;BME280;48110;47.532;19.078;2024-01-30T13:40:08;102575.75;;;7.22;86.59
62124;BME280;48110;47.532;19.078;2024-01-30T13:43:16;102575.84;;;7.07;85.48
62124;BME280;48110;47.532;19.078;2024-01-30T13:46:20;102577.44;;;7.23;82.04
62124;BME280;48110;47.532;19.078;2024-01-30T13:49:23;102569.37;;;6.82;83.15
62124;BME280;48110;47.532;19.078;2024-01-30T13:52:26;102569.81;;;6.75;78.96
62124;BME280;48110;47.532;19.078;2024-01-30T13:55:37;102573.03;;;6.80;76.40
62124;BME280;48110;47.532;19.078;2024-01-30T13:58:41;102573.78;;;6.52;74.75
62124;BME280;48110;47.532;19.078;2024-01-30T14:01:45;102565.72;;;6.39;75.81
62124;BME280;48110;47.532;19.078;2024-01-30T14:04:48;102566.88;;;6.49;75.42
62124;BME280;48110;47.532;19.078;2024-01-30T14:07:51;102560.88;;;6.32;75.37
62124;BME280;48110;47.532;19.078;2024-01-30T14:10:54;102562.75;;;5.83;78.84
62124;BME280;48110;47.532;19.078;2024-01-30T14:13:58;102562.81;;;5.33;80.60
62124;BME280;48110;47.532;19.078;2024-01-30T14:17:03;102555.69;;;5.35;82.74
62124;BME280;48110;47.532;19.078;2024-01-30T14:20:06;102562.97;;;5.30;81.92
62124;BME280;48110;47.532;19.078;2024-01-30T14:23:10;102555.66;;;5.19;82.47
62124;BME280;48110;47.532;19.078;2024-01-30T14:26:12;102556.91;;;5.12;84.19
62124;BME280;48110;47.532;19.078;2024-01-30T14:29:15;102557.22;;;5.06;85.29
62124;BME280;48110;47.532;19.078;2024-01-30T14:32:18;102553.53;;;4.93;86.89
62124;BME280;48110;47.532;19.078;2024-01-30T14:35:21;102555.69;;;4.85;89.45
62124;BME280;48110;47.532;19.078;2024-01-30T14:38:24;102550.75;;;4.78;90.66
62124;BME280;48110;47.532;19.078;2024-01-30T14:41:27;102544.94;;;4.72;88.62
62124;BME280;48110;47.532;19.078;2024-01-30T14:44:31;102546.03;;;4.68;88.23
62124;BME280;48110;47.532;19.078;2024-01-30T14:47:34;102543.53;;;4.65;91.40
62124;BME280;48110;47.532;19.078;2024-01-30T14:50:40;102548.34;;;4.57;92.78
62124;BME280;48110;47.532;19.078;2024-01-30T14:53:43;102544.94;;;4.55;94.39
62124;BME280;48110;47.532;19.078;2024-01-30T14:56:46;102551.09;;;4.36;97.94
62124;BME280;48110;47.532;19.078;2024-01-30T14:59:49;102546.22;;;4.29;100.00
62124;BME280;48110;47.532;19.078;2024-01-30T15:02:52;102554.09;;;4.29;100.00
62124;BME280;48110;47.532;19.078;2024-01-30T15:05:55;102548.41;;;4.38;100.00
62124;BME280;48110;47.532;19.078;2024-01-30T15:08:58;102550.88;;;4.41;100.00
62124;BME280;48110;47.532;19.078;2024-01-30T15:12:02;102542.69;;;4.30;100.00
62124;BME280;48110;47.532;19.078;2024-01-30T15:15:07;102548.53;;;3.99;100.00
62124;BME280;48110;47.532;19.078;2024-01-30T15:18:10;102542.22;;;3.84;100.00
62124;BME280;48110;47.532;19.078;2024-01-30T15:21:14;102549.25;;;3.65;100.00
62124;BME280;48110;47.532;19.078;2024-01-30T15:24:16;102541.22;;;3.49;100.00
62124;BME280;48110;47.532;19.078;2024-01-30T15:27:20;102543.00;;;3.49;100.00
62124;BME280;48110;47.532;19.078;2024-01-30T15:30:23;102539.22;;;3.36;100.00
62124;BME280;48110;47.532;19.078;2024-01-30T15:33:26;102536.62;;;3.16;100.00
62124;BME280;48110;47.532;19.078;2024-01-30T15:36:31;102534.56;;;3.03;100.00
62124;BME280;48110;47.532;19.078;2024-01-30T15:39:34;102540.66;;;2.84;100.00
62124;BME280;48110;47.532;19.078;2024-01-30T15:42:37;102533.19;;;2.75;100.00